createdAt,value
2023-01-01T00:01:40.449Z,96533.94
2023-01-01T00:04:09.021Z,96532.13
2023-01-01T00:06:37.532Z,96553.56
2023-01-01T00:09:22.626Z,96535.19
2023-01-01T00:11:49.061Z,96533.88
2023-01-01T00:14:15.571Z,96531.28
2023-01-01T00:16:42.088Z,96531.94
2023-01-01T00:19:08.545Z,96531.63
2023-01-01T00:21:35.012Z,96539.50
2023-01-01T00:24:01.539Z,96542.78
2023-01-01T00:26:34.311Z,96546.88
2023-01-01T00:29:01.835Z,96543.59
2023-01-01T00:31:28.434Z,96540.00
2023-01-01T00:33:55.418Z,96552.97
2023-01-01T00:36:22.877Z,96544.94
2023-01-01T00:38:49.571Z,96539.69
2023-01-01T00:41:16.508Z,96555.44
2023-01-01T00:43:43.084Z,96552.81
2023-01-01T00:46:09.695Z,96547.56
2023-01-01T00:48:36.521Z,96552.47
2023-01-01T00:51:03.404Z,96552.47
2023-01-01T00:53:30.086Z,96559.69
2023-01-01T00:55:56.594Z,96556.53
2023-01-01T00:58:24.012Z,96559.34
2023-01-01T01:00:50.990Z,96562.63
2023-01-01T01:03:30.315Z,96561.00
2023-01-01T01:06:02.736Z,96563.63
2023-01-01T01:08:31.290Z,96561.97
2023-01-01T01:11:08.521Z,96553.28
2023-01-01T01:13:35.032Z,96560.28
2023-01-01T01:16:01.574Z,96564.84
2023-01-01T01:18:28.022Z,96569.94
2023-01-01T01:20:54.493Z,96567.00
2023-01-01T01:23:21.143Z,96564.91
2023-01-01T01:25:47.677Z,96565.56
2023-01-01T01:28:14.127Z,96561.97
2023-01-01T01:30:40.994Z,96552.44
2023-01-01T01:33:07.620Z,96556.03
2023-01-01T01:35:34.172Z,96556.03
2023-01-01T01:38:00.934Z,96561.28
2023-01-01T01:40:27.401Z,96572.78
2023-01-01T01:42:53.827Z,96568.34
2023-01-01T01:45:20.287Z,96563.91
2023-01-01T01:47:47.321Z,96571.78
2023-01-01T01:50:16.270Z,96566.53
2023-01-01T01:52:48.242Z,96560.66
2023-01-01T01:55:14.830Z,96560.66
2023-01-01T01:57:41.809Z,96559.97
2023-01-01T02:00:11.619Z,96556.34
2023-01-01T02:02:50.657Z,96563.25
2023-01-01T02:05:18.678Z,96562.28
2023-01-01T02:07:45.322Z,96558.03
2023-01-01T02:10:11.837Z,96567.16
2023-01-01T02:12:38.482Z,96561.91
2023-01-01T02:15:05.328Z,96553.06
2023-01-01T02:17:38.694Z,96553.88
2023-01-01T02:20:12.460Z,96561.59
2023-01-01T02:23:03.928Z,96572.59
2023-01-01T02:25:41.453Z,96570.16
2023-01-01T02:28:15.493Z,96561.28
2023-01-01T02:30:44.379Z,96556.03
2023-01-01T02:33:17.483Z,96555.41
2023-01-01T02:35:49.209Z,96555.06
2023-01-01T02:38:19.264Z,96548.84
2023-01-01T02:40:49.132Z,96550.94
2023-01-01T02:43:20.144Z,96549.16
2023-01-01T02:45:49.696Z,96543.91
2023-01-01T02:48:35.017Z,96556.03
2023-01-01T02:51:04.673Z,96553.41
2023-01-01T02:53:36.234Z,96559.34
2023-01-01T02:56:08.404Z,96557.69
2023-01-01T02:58:59.698Z,96557.53
2023-01-01T03:01:49.054Z,96549.00
2023-01-01T03:04:34.263Z,96553.41
2023-01-01T03:07:06.839Z,96560.44
2023-01-01T03:09:36.261Z,96570.78
2023-01-01T03:12:05.801Z,96567.16
2023-01-01T03:14:32.196Z,96579.28
2023-01-01T03:17:21.529Z,96579.28
2023-01-01T03:19:49.705Z,96573.09
2023-01-01T03:22:17.313Z,96579.00
2023-01-01T03:24:43.728Z,96577.34
2023-01-01T03:27:15.869Z,96568.50
2023-01-01T03:29:43.566Z,96576.53
2023-01-01T03:32:14.439Z,96570.78
2023-01-01T03:34:43.632Z,96571.41
2023-01-01T03:37:12.604Z,96577.34
2023-01-01T03:39:43.188Z,96566.84
2023-01-01T03:42:22.424Z,96570.16
2023-01-01T03:44:52.171Z,96575.41
2023-01-01T03:47:19.120Z,96570.16
2023-01-01T03:49:46.100Z,96577.03
2023-01-01T03:52:21.067Z,96581.31
2023-01-01T03:54:58.516Z,96573.44
2023-01-01T03:57:44.628Z,96577.84
2023-01-01T04:00:16.472Z,96579.97
2023-01-01T04:03:00.705Z,96574.38
2023-01-01T04:05:28.671Z,96578.94
2023-01-01T04:07:55.592Z,96584.84
2023-01-01T04:10:23.422Z,96574.03
2023-01-01T04:12:51.227Z,96575.72
2023-01-01T04:15:18.405Z,96572.09
2023-01-01T04:17:45.167Z,96577.34
2023-01-01T04:20:12.179Z,96562.44
2023-01-01T04:22:38.633Z,96579.81
2023-01-01T04:25:05.403Z,96568.19
2023-01-01T04:27:31.935Z,96583.09
2023-01-01T04:29:58.456Z,96587.22
2023-01-01T04:32:24.944Z,96581.16
2023-01-01T04:34:51.413Z,96586.25
2023-01-01T04:37:17.869Z,96584.28
2023-01-01T04:39:44.331Z,96587.91
2023-01-01T04:42:10.776Z,96585.28
2023-01-01T04:44:37.288Z,96580.69
2023-01-01T04:47:03.816Z,96588.56
2023-01-01T04:49:30.272Z,96603.25
2023-01-01T04:51:56.689Z,96592.06
2023-01-01T04:54:23.220Z,96599.63
2023-01-01T04:56:49.641Z,96593.41
2023-01-01T04:59:16.262Z,96591.09
2023-01-01T05:01:42.812Z,96593.72
2023-01-01T05:04:11.171Z,96591.78
2023-01-01T05:06:37.626Z,96584.53
2023-01-01T05:09:04.169Z,96580.97
2023-01-01T05:11:30.934Z,96599.28
2023-01-01T05:13:59.274Z,96598.13
2023-01-01T05:16:27.574Z,96591.78
2023-01-01T05:18:54.181Z,96607.78
2023-01-01T05:21:22.533Z,96586.97
2023-01-01T05:23:49.561Z,96587.63
2023-01-01T05:26:17.593Z,96587.31
2023-01-01T05:28:44.064Z,96590.47
2023-01-01T05:31:17.422Z,96590.63
2023-01-01T05:33:44.010Z,96593.41
2023-01-01T05:36:14.181Z,96596.69
2023-01-01T05:38:40.917Z,96590.31
2023-01-01T05:41:08.196Z,96606.03
2023-01-01T05:43:35.003Z,96606.38
2023-01-01T05:46:02.851Z,96604.88
2023-01-01T05:48:29.665Z,96603.91
2023-01-01T05:51:01.734Z,96609.91
2023-01-01T05:53:28.673Z,96605.66
2023-01-01T05:55:55.123Z,96618.91
2023-01-01T05:58:21.559Z,96595.97
2023-01-01T06:00:48.201Z,96616.97
2023-01-01T06:03:14.619Z,96611.41
2023-01-01T06:05:41.062Z,96617.34
2023-01-01T06:08:07.486Z,96609.16
2023-01-01T06:10:33.916Z,96616.66
2023-01-01T06:13:00.431Z,96604.81
2023-01-01T06:15:27.459Z,96615.03
2023-01-01T06:17:54.456Z,96609.47
2023-01-01T06:20:20.987Z,96618.97
2023-01-01T06:22:47.431Z,96617.16
2023-01-01T06:25:13.953Z,96598.66
2023-01-01T06:27:40.406Z,96597.53
2023-01-01T06:30:07.776Z,96605.09
2023-01-01T06:32:34.243Z,96611.44
2023-01-01T06:35:00.756Z,96610.50
2023-01-01T06:37:27.816Z,96614.06
2023-01-01T06:39:54.335Z,96622.94
2023-01-01T06:42:20.883Z,96630.50
2023-01-01T06:44:47.328Z,96631.84
2023-01-01T06:47:13.778Z,96628.38
2023-01-01T06:49:40.183Z,96627.88
2023-01-01T06:52:06.666Z,96616.53
2023-01-01T06:54:33.107Z,96619.84
2023-01-01T06:56:59.549Z,96635.53
2023-01-01T06:59:25.994Z,96632.59
2023-01-01T07:01:52.622Z,96638.06
2023-01-01T07:04:19.212Z,96638.06
2023-01-01T07:06:45.646Z,96638.41
2023-01-01T07:09:12.233Z,96645.84
2023-01-01T07:11:38.712Z,96644.69
2023-01-01T07:14:05.185Z,96645.22
2023-01-01T07:16:31.791Z,96658.19
2023-01-01T07:18:58.463Z,96655.41
2023-01-01T07:21:28.812Z,96646.41
2023-01-01T07:23:56.474Z,96656.59
2023-01-01T07:26:23.894Z,96653.97
2023-01-01T07:28:51.205Z,96656.44
2023-01-01T07:31:17.699Z,96654.31
2023-01-01T07:33:44.224Z,96659.25
2023-01-01T07:36:10.645Z,96648.75
2023-01-01T07:38:37.147Z,96662.72
2023-01-01T07:41:03.625Z,96660.09
2023-01-01T07:43:30.121Z,96672.88
2023-01-01T07:45:57.305Z,96663.91
2023-01-01T07:48:23.850Z,96667.19
2023-01-01T07:50:50.707Z,96667.84
2023-01-01T07:53:17.219Z,96667.19
2023-01-01T07:55:45.728Z,96672.09
2023-01-01T07:58:12.858Z,96671.09
2023-01-01T08:00:39.736Z,96665.53
2023-01-01T08:03:07.053Z,96664.41
2023-01-01T08:05:35.793Z,96663.25
2023-01-01T08:08:02.275Z,96669.66
2023-01-01T08:10:28.855Z,96677.06
2023-01-01T08:13:01.877Z,96682.00
2023-01-01T08:15:28.647Z,96678.91
2023-01-01T08:17:59.328Z,96682.34
2023-01-01T08:20:26.646Z,96685.28
2023-01-01T08:22:53.116Z,96690.53
2023-01-01T08:25:19.595Z,96687.59
2023-01-01T08:27:46.348Z,96684.00
2023-01-01T08:30:13.605Z,96676.81
2023-01-01T08:32:40.111Z,96676.13
2023-01-01T08:35:06.837Z,96681.38
2023-01-01T08:37:33.293Z,96673.50
2023-01-01T08:39:59.761Z,96687.16
2023-01-01T08:42:26.210Z,96689.28
2023-01-01T08:44:52.676Z,96695.91
2023-01-01T08:47:23.926Z,96712.00
2023-01-01T08:49:50.532Z,96715.94
2023-01-01T08:52:17.017Z,96717.28
2023-01-01T08:54:43.481Z,96708.13
2023-01-01T08:57:10.002Z,96709.94
2023-01-01T08:59:36.658Z,96718.66
2023-01-01T09:02:03.593Z,96719.00
2023-01-01T09:04:30.184Z,96709.13
2023-01-01T09:06:56.733Z,96714.09
2023-01-01T09:09:27.383Z,96713.09
2023-01-01T09:12:04.301Z,96700.63
2023-01-01T09:14:31.367Z,96699.47
2023-01-01T09:16:58.060Z,96700.81
2023-01-01T09:19:24.571Z,96715.75
2023-01-01T09:21:51.182Z,96706.41
2023-01-01T09:24:17.608Z,96713.00
2023-01-01T09:26:45.459Z,96705.47
2023-01-01T09:29:11.904Z,96712.69
2023-01-01T09:31:38.370Z,96719.47
2023-01-01T09:34:04.857Z,96710.25
2023-01-01T09:36:32.149Z,96704.38
2023-01-01T09:38:59.302Z,96703.03
2023-01-01T09:41:43.542Z,96701.75
2023-01-01T09:44:30.336Z,96695.84
2023-01-01T09:46:59.445Z,96688.59
2023-01-01T09:49:26.356Z,96687.31
2023-01-01T09:51:58.242Z,96682.38
2023-01-01T09:54:27.831Z,96687.81
2023-01-01T09:56:55.994Z,96686.34
2023-01-01T09:59:22.501Z,96681.44
2023-01-01T10:02:04.124Z,96688.66
2023-01-01T10:04:47.739Z,96687.19
2023-01-01T10:07:17.264Z,96692.94
2023-01-01T10:09:56.589Z,96690.66
2023-01-01T10:12:30.600Z,96675.50
2023-01-01T10:15:13.344Z,96678.63
2023-01-01T10:17:45.559Z,96685.22
2023-01-01T10:20:18.405Z,96687.69
2023-01-01T10:22:47.441Z,96693.44
2023-01-01T10:25:22.659Z,96692.28
2023-01-01T10:27:59.911Z,96688.34
2023-01-01T10:30:27.743Z,96680.94
2023-01-01T10:32:55.213Z,96671.88
2023-01-01T10:35:31.231Z,96672.53
2023-01-01T10:38:01.148Z,96663.00
2023-01-01T10:40:29.399Z,96676.28
2023-01-01T10:42:56.885Z,96684.38
2023-01-01T10:45:26.112Z,96679.41
2023-01-01T10:48:11.711Z,96672.53
2023-01-01T10:50:56.279Z,96669.53
2023-01-01T10:53:28.652Z,96675.81
2023-01-01T10:56:03.209Z,96682.72
2023-01-01T10:58:43.272Z,96679.75
2023-01-01T11:01:18.867Z,96685.31
2023-01-01T11:04:01.939Z,96686.81
2023-01-01T11:06:32.956Z,96692.56
2023-01-01T11:09:00.491Z,96686.97
2023-01-01T11:11:27.064Z,96674.13
2023-01-01T11:13:54.855Z,96683.34
2023-01-01T11:16:21.592Z,96674.25
2023-01-01T11:18:49.658Z,96674.25
2023-01-01T11:21:23.163Z,96671.44
2023-01-01T11:23:51.579Z,96679.22
2023-01-01T11:26:17.982Z,96672.75
2023-01-01T11:28:58.741Z,96667.16
2023-01-01T11:31:27.630Z,96655.28
2023-01-01T11:33:55.326Z,96642.59
2023-01-01T11:36:40.129Z,96649.19
2023-01-01T11:39:26.669Z,96651.03
2023-01-01T11:41:57.232Z,96655.94
2023-01-01T11:44:23.638Z,96651.34
2023-01-01T11:46:50.108Z,96645.75
2023-01-01T11:49:23.059Z,96649.66
2023-01-01T11:51:49.739Z,96660.88
2023-01-01T11:54:19.172Z,96666.97
2023-01-01T11:56:46.779Z,96646.19
2023-01-01T11:59:16.345Z,96638.47
2023-01-01T12:01:42.779Z,96647.03
2023-01-01T12:04:13.827Z,96643.75
2023-01-01T12:06:45.379Z,96642.59
2023-01-01T12:09:18.106Z,96634.16
2023-01-01T12:11:45.395Z,96632.34
2023-01-01T12:14:32.860Z,96636.78
2023-01-01T12:17:05.507Z,96637.94
2023-01-01T12:19:48.118Z,96642.03
2023-01-01T12:22:18.547Z,96642.38
2023-01-01T12:24:46.130Z,96643.38
2023-01-01T12:27:39.035Z,96636.13
2023-01-01T12:30:05.553Z,96642.03
2023-01-01T12:32:50.644Z,96649.31
2023-01-01T12:35:25.369Z,96639.75
2023-01-01T12:38:05.530Z,96633.31
2023-01-01T12:40:38.672Z,96629.97
2023-01-01T12:43:12.713Z,96653.41
2023-01-01T12:45:48.206Z,96646.00
2023-01-01T12:48:14.694Z,96643.88
2023-01-01T12:50:55.000Z,96650.47
2023-01-01T12:53:42.288Z,96649.31
2023-01-01T12:56:12.788Z,96646.31
2023-01-01T12:58:43.367Z,96648.97
2023-01-01T13:01:36.031Z,96648.97
2023-01-01T13:04:07.554Z,96645.78
2023-01-01T13:06:33.950Z,96644.53
2023-01-01T13:09:05.676Z,96647.59
2023-01-01T13:11:34.924Z,96655.06
2023-01-01T13:14:03.920Z,96647.28
2023-01-01T13:16:53.394Z,96655.88
2023-01-01T13:19:30.823Z,96657.84
2023-01-01T13:21:57.360Z,96654.88
2023-01-01T13:24:25.395Z,96662.78
2023-01-01T13:26:52.119Z,96663.28
2023-01-01T13:29:18.586Z,96655.19
2023-01-01T13:31:47.897Z,96666.06
2023-01-01T13:34:29.561Z,96668.06
2023-01-01T13:37:11.311Z,96668.56
2023-01-01T13:39:56.038Z,96662.44
2023-01-01T13:42:38.619Z,96678.28
2023-01-01T13:45:11.889Z,96673.34
2023-01-01T13:47:56.622Z,96670.69
2023-01-01T13:50:43.300Z,96668.88
2023-01-01T13:53:28.688Z,96677.13
2023-01-01T13:56:14.144Z,96685.56
2023-01-01T13:58:40.582Z,96684.91
2023-01-01T14:01:07.437Z,96677.34
2023-01-01T14:03:38.573Z,96681.59
2023-01-01T14:06:10.287Z,96681.25
2023-01-01T14:08:37.827Z,96676.34
2023-01-01T14:11:19.575Z,96683.59
2023-01-01T14:13:46.163Z,96684.91
2023-01-01T14:16:13.852Z,96695.44
2023-01-01T14:18:40.383Z,96690.16
2023-01-01T14:21:16.082Z,96688.19
2023-01-01T14:23:48.504Z,96695.56
2023-01-01T14:26:16.800Z,96692.78
2023-01-01T14:28:43.627Z,96701.50
2023-01-01T14:31:12.010Z,96705.94
2023-01-01T14:33:39.582Z,96705.31
2023-01-01T14:36:14.286Z,96696.59
2023-01-01T14:38:43.530Z,96699.88
2023-01-01T14:41:12.972Z,96699.09
2023-01-01T14:43:41.311Z,96700.06
2023-01-01T14:46:11.330Z,96700.22
2023-01-01T14:48:42.289Z,96700.75
2023-01-01T14:51:11.727Z,96703.72
2023-01-01T14:53:38.209Z,96702.91
2023-01-01T14:56:07.208Z,96707.69
2023-01-01T14:58:34.027Z,96716.91
2023-01-01T15:01:30.233Z,96714.63
2023-01-01T15:03:57.067Z,96714.97
2023-01-01T15:06:24.751Z,96720.22
2023-01-01T15:08:51.653Z,96716.94
2023-01-01T15:11:20.203Z,96721.53
2023-01-01T15:13:54.353Z,96724.50
2023-01-01T15:16:21.028Z,96737.38
2023-01-01T15:18:50.534Z,96727.34
2023-01-01T15:21:18.820Z,96737.38
2023-01-01T15:23:49.910Z,96737.69
2023-01-01T15:26:24.703Z,96731.63
2023-01-01T15:28:51.178Z,96743.28
2023-01-01T15:31:17.748Z,96742.63
2023-01-01T15:33:48.280Z,96745.44
2023-01-01T15:36:16.873Z,96746.44
2023-01-01T15:38:47.069Z,96751.22
2023-01-01T15:41:25.822Z,96752.22
2023-01-01T15:43:52.269Z,96753.50
2023-01-01T15:46:20.556Z,96760.91
2023-01-01T15:48:48.823Z,96762.22
2023-01-01T15:51:26.981Z,96763.38
2023-01-01T15:53:53.464Z,96770.44
2023-01-01T15:56:21.681Z,96763.72
2023-01-01T15:59:08.765Z,96762.88
2023-01-01T16:01:37.245Z,96763.53
2023-01-01T16:04:22.271Z,96759.75
2023-01-01T16:06:54.007Z,96768.63
2023-01-01T16:09:20.954Z,96770.28
2023-01-01T16:11:54.491Z,96770.59
2023-01-01T16:14:21.020Z,96767.00
2023-01-01T16:16:50.473Z,96763.69
2023-01-01T16:19:17.990Z,96766.50
2023-01-01T16:21:44.415Z,96765.81
2023-01-01T16:24:13.235Z,96765.16
2023-01-01T16:26:40.062Z,96766.31
2023-01-01T16:29:06.540Z,96760.22
2023-01-01T16:31:32.981Z,96754.13
2023-01-01T16:33:59.844Z,96758.59
2023-01-01T16:36:29.528Z,96756.91
2023-01-01T16:38:56.498Z,96771.03
2023-01-01T16:41:23.433Z,96761.66
2023-01-01T16:43:49.915Z,96759.19
2023-01-01T16:46:16.844Z,96770.88
2023-01-01T16:48:43.598Z,96775.63
2023-01-01T16:51:22.780Z,96782.69
2023-01-01T16:53:49.231Z,96787.94
2023-01-01T16:56:16.332Z,96784.66
2023-01-01T16:58:53.224Z,96785.16
2023-01-01T17:01:24.967Z,96791.53
2023-01-01T17:03:51.655Z,96789.22
2023-01-01T17:06:18.599Z,96791.88
2023-01-01T17:08:45.078Z,96792.81
2023-01-01T17:11:14.124Z,96793.97
2023-01-01T17:13:44.713Z,96803.50
2023-01-01T17:16:12.112Z,96800.06
2023-01-01T17:19:13.293Z,96801.69
2023-01-01T17:21:25.543Z,96798.91
2023-01-01T17:23:52.019Z,96803.31
2023-01-01T17:26:20.028Z,96799.91
2023-01-01T17:28:47.196Z,96806.97
2023-01-01T17:31:14.927Z,96801.69
2023-01-01T17:33:41.767Z,96803.66
2023-01-01T17:36:09.019Z,96802.97
2023-01-01T17:38:35.642Z,96808.25
2023-01-01T17:41:07.060Z,96810.22
2023-01-01T17:43:34.561Z,96820.09
2023-01-01T17:46:07.958Z,96813.47
2023-01-01T17:48:34.487Z,96836.19
2023-01-01T17:51:00.956Z,96840.28
2023-01-01T17:53:27.582Z,96828.94
2023-01-01T17:55:54.213Z,96829.25
2023-01-01T17:58:20.665Z,96838.94
2023-01-01T18:00:47.101Z,96845.34
2023-01-01T18:03:13.984Z,96844.34
2023-01-01T18:05:40.647Z,96843.41
2023-01-01T18:08:07.086Z,96831.22
2023-01-01T18:10:33.539Z,96842.88
2023-01-01T18:12:59.990Z,96836.78
2023-01-01T18:15:26.508Z,96842.06
2023-01-01T18:17:52.949Z,96833.81
2023-01-01T18:20:19.468Z,96840.75
2023-01-01T18:22:46.070Z,96839.59
2023-01-01T18:25:12.781Z,96839.41
2023-01-01T18:27:39.287Z,96834.16
2023-01-01T18:30:06.229Z,96827.28
2023-01-01T18:32:32.720Z,96825.44
2023-01-01T18:34:59.237Z,96815.75
2023-01-01T18:37:25.671Z,96817.41
2023-01-01T18:39:52.113Z,96813.78
2023-01-01T18:42:34.515Z,96817.09
2023-01-01T18:45:15.700Z,96824.00
2023-01-01T18:47:42.743Z,96824.00
2023-01-01T18:50:26.776Z,96826.78
2023-01-01T18:53:01.152Z,96826.09
2023-01-01T18:55:28.179Z,96820.66
2023-01-01T18:57:57.597Z,96814.44
2023-01-01T19:00:26.136Z,96817.88
2023-01-01T19:02:57.860Z,96806.41
2023-01-01T19:05:34.434Z,96801.44
2023-01-01T19:08:00.838Z,96803.19
2023-01-01T19:10:29.553Z,96804.84
2023-01-01T19:12:56.323Z,96796.81
2023-01-01T19:15:23.006Z,96795.66
2023-01-01T19:17:49.493Z,96794.34
2023-01-01T19:20:17.554Z,96794.00
2023-01-01T19:22:44.086Z,96796.94
2023-01-01T19:25:39.926Z,96795.78
2023-01-01T19:28:15.286Z,96794.66
2023-01-01T19:30:42.341Z,96798.94
2023-01-01T19:33:08.856Z,96793.00
2023-01-01T19:35:35.307Z,96797.13
2023-01-01T19:38:01.755Z,96790.53
2023-01-01T19:40:29.634Z,96793.00
2023-01-01T19:42:56.411Z,96786.09
2023-01-01T19:45:22.854Z,96779.84
2023-01-01T19:47:49.329Z,96792.84
2023-01-01T19:50:15.771Z,96785.78
2023-01-01T19:52:42.238Z,96794.81
2023-01-01T19:55:08.988Z,96793.81
2023-01-01T19:57:35.766Z,96791.38
2023-01-01T20:00:02.219Z,96793.31
2023-01-01T20:02:46.034Z,96798.41
2023-01-01T20:05:13.721Z,96800.88
2023-01-01T20:07:40.203Z,96799.09
2023-01-01T20:10:06.831Z,96802.72
2023-01-01T20:12:33.276Z,96798.25
2023-01-01T20:14:59.734Z,96793.00
2023-01-01T20:17:26.188Z,96792.28
2023-01-01T20:19:54.719Z,96799.22
2023-01-01T20:22:22.061Z,96788.53
2023-01-01T20:24:48.670Z,96794.91
2023-01-01T20:27:17.763Z,96797.53
2023-01-01T20:29:44.624Z,96789.66
2023-01-01T20:32:12.940Z,96795.75
2023-01-01T20:34:40.133Z,96793.97
2023-01-01T20:37:25.203Z,96799.06
2023-01-01T20:39:51.653Z,96794.31
2023-01-01T20:42:18.277Z,96802.72
2023-01-01T20:44:44.818Z,96800.88
2023-01-01T20:47:12.005Z,96808.78
2023-01-01T20:49:38.536Z,96807.97
2023-01-01T20:52:05.051Z,96806.31
2023-01-01T20:54:31.541Z,96800.72
2023-01-01T20:56:58.002Z,96814.53
2023-01-01T20:59:35.472Z,96804.69
2023-01-01T21:02:04.751Z,96807.31
2023-01-01T21:04:31.501Z,96805.38
2023-01-01T21:06:58.011Z,96807.50
2023-01-01T21:09:24.473Z,96807.69
2023-01-01T21:11:50.902Z,96803.09
2023-01-01T21:14:17.798Z,96803.94
2023-01-01T21:16:44.945Z,96800.31
2023-01-01T21:19:11.618Z,96799.47
2023-01-01T21:21:47.599Z,96797.50
2023-01-01T21:24:17.015Z,96801.13
2023-01-01T21:26:43.459Z,96805.41
2023-01-01T21:29:18.233Z,96808.88
2023-01-01T21:31:45.595Z,96811.31
2023-01-01T21:34:24.448Z,96812.25
2023-01-01T21:36:50.990Z,96809.13
2023-01-01T21:39:28.264Z,96812.38
2023-01-01T21:41:59.043Z,96812.38
2023-01-01T21:44:25.498Z,96805.97
2023-01-01T21:46:58.314Z,96804.19
2023-01-01T21:49:35.776Z,96806.81
2023-01-01T21:52:02.967Z,96803.69
2023-01-01T21:54:33.245Z,96807.84
2023-01-01T21:57:15.883Z,96802.75
2023-01-01T21:59:43.853Z,96793.69
2023-01-01T22:02:10.374Z,96792.06
2023-01-01T22:04:41.170Z,96778.25
2023-01-01T22:10:17.438Z,96785.47
2023-01-01T22:12:44.316Z,96781.19
2023-01-01T22:15:22.604Z,96770.69
2023-01-01T22:17:49.307Z,96769.69
2023-01-01T22:20:19.891Z,96771.34
2023-01-01T22:22:46.377Z,96776.59
2023-01-01T22:25:29.081Z,96782.50
2023-01-01T22:27:56.220Z,96776.97
2023-01-01T22:30:25.524Z,96778.44
2023-01-01T22:32:53.825Z,96780.91
2023-01-01T22:35:25.889Z,96781.56
2023-01-01T22:37:55.836Z,96775.34
2023-01-01T22:40:40.861Z,96778.94
2023-01-01T22:43:11.500Z,96791.75
2023-01-01T22:45:39.439Z,96788.75
2023-01-01T22:48:07.011Z,96790.56
2023-01-01T22:50:34.368Z,96788.75
2023-01-01T22:53:03.833Z,96784.66
2023-01-01T22:55:30.352Z,96783.81
2023-01-01T22:57:56.779Z,96781.34
2023-01-01T23:00:23.225Z,96784.94
2023-01-01T23:02:49.741Z,96786.09
2023-01-01T23:05:16.261Z,96780.81
2023-01-01T23:07:43.427Z,96775.56
2023-01-01T23:10:13.810Z,96769.00
2023-01-01T23:12:40.294Z,96768.03
2023-01-01T23:15:49.655Z,96776.72
2023-01-01T23:18:18.821Z,96770.50
2023-01-01T23:20:45.273Z,96778.22
2023-01-01T23:23:11.856Z,96765.06
2023-01-01T23:25:38.296Z,96771.16
2023-01-01T23:28:04.900Z,96760.66
2023-01-01T23:30:31.438Z,96766.72
2023-01-01T23:32:58.085Z,96766.72
2023-01-01T23:35:24.578Z,96766.19
2023-01-01T23:37:51.037Z,96760.13
2023-01-01T23:40:17.535Z,96756.50
2023-01-01T23:42:43.987Z,96758.97
2023-01-01T23:45:10.520Z,96750.13
2023-01-01T23:47:37.133Z,96748.47
2023-01-01T23:50:03.749Z,96751.09
2023-01-01T23:52:30.310Z,96747.50
2023-01-01T23:54:56.752Z,96744.72
2023-01-01T23:57:23.186Z,96744.03
2023-01-01T23:59:49.636Z,96744.03
